sensor_id;sensor_type;location;lat;lon;timestamp;pressure;altitude;pressure_sealevel;temperature;humidity
61292;BME280;47165;42.664;23.368;2024-02-16T00:01:02;95592.91;;;6.35;48.59
61292;BME280;47165;42.664;23.368;2024-02-16T00:03:28;95593.03;;;6.31;48.81
61292;BME280;47165;42.664;23.368;2024-02-16T00:05:54;95593.00;;;6.32;48.98
61292;BME280;47165;42.664;23.368;2024-02-16T00:08:20;95587.22;;;6.24;49.23
61292;BME280;47165;42.664;23.368;2024-02-16T00:10:46;95597.56;;;6.24;49.60
61292;BME280;47165;42.664;23.368;2024-02-16T00:13:12;95593.22;;;6.24;49.02
61292;BME280;47165;42.664;23.368;2024-02-16T00:15:38;95590.88;;;6.17;48.61
61292;BME280;47165;42.664;23.368;2024-02-16T00:18:06;95597.75;;;6.18;48.74
61292;BME280;47165;42.664;23.368;2024-02-16T00:20:32;95597.94;;;6.12;49.11
61292;BME280;47165;42.664;23.368;2024-02-16T00:22:58;95583.41;;;6.06;49.51
61292;BME280;47165;42.664;23.368;2024-02-16T00:25:25;95596.38;;;6.06;50.21
61292;BME280;47165;42.664;23.368;2024-02-16T00:27:51;95598.91;;;6.09;49.60
61292;BME280;47165;42.664;23.368;2024-02-16T00:30:22;95598.13;;;6.06;49.20
61292;BME280;47165;42.664;23.368;2024-02-16T00:32:48;95598.34;;;5.98;49.72
61292;BME280;47165;42.664;23.368;2024-02-16T00:35:15;95598.38;;;5.96;49.54
61292;BME280;47165;42.664;23.368;2024-02-16T00:37:45;95595.91;;;5.92;49.84
61292;BME280;47165;42.664;23.368;2024-02-16T00:40:11;95595.91;;;5.92;49.79
61292;BME280;47165;42.664;23.368;2024-02-16T00:42:37;95597.78;;;5.87;50.15
61292;BME280;47165;42.664;23.368;2024-02-16T00:45:03;95597.78;;;5.87;50.38
61292;BME280;47165;42.664;23.368;2024-02-16T00:47:29;95599.47;;;5.88;50.66
61292;BME280;47165;42.664;23.368;2024-02-16T00:49:55;95599.50;;;5.86;50.52
61292;BME280;47165;42.664;23.368;2024-02-16T00:52:22;95597.69;;;5.90;50.43
61292;BME280;47165;42.664;23.368;2024-02-16T00:54:49;95608.81;;;5.93;50.16
61292;BME280;47165;42.664;23.368;2024-02-16T00:57:15;95600.09;;;5.97;50.08
61292;BME280;47165;42.664;23.368;2024-02-16T00:59:41;95604.47;;;5.94;50.20
61292;BME280;47165;42.664;23.368;2024-02-16T01:02:07;95594.13;;;5.94;50.00
61292;BME280;47165;42.664;23.368;2024-02-16T01:04:33;95601.09;;;5.92;50.08
61292;BME280;47165;42.664;23.368;2024-02-16T01:06:59;95603.84;;;5.85;50.26
61292;BME280;47165;42.664;23.368;2024-02-16T01:09:25;95599.47;;;5.88;50.31
61292;BME280;47165;42.664;23.368;2024-02-16T01:11:50;95595.13;;;5.88;49.64
61292;BME280;47165;42.664;23.368;2024-02-16T01:14:16;95594.28;;;5.88;49.71
61292;BME280;47165;42.664;23.368;2024-02-16T01:16:41;95591.00;;;5.82;50.03
61292;BME280;47165;42.664;23.368;2024-02-16T01:19:07;95598.00;;;5.79;49.99
61292;BME280;47165;42.664;23.368;2024-02-16T01:21:33;95596.38;;;5.76;50.11
61292;BME280;47165;42.664;23.368;2024-02-16T01:23:58;95591.06;;;5.79;50.27
61292;BME280;47165;42.664;23.368;2024-02-16T01:26:26;95590.13;;;5.82;50.00
61292;BME280;47165;42.664;23.368;2024-02-16T01:28:52;95595.25;;;5.85;50.00
61292;BME280;47165;42.664;23.368;2024-02-16T01:31:17;95592.88;;;5.77;49.85
61292;BME280;47165;42.664;23.368;2024-02-16T01:33:43;95581.84;;;5.71;50.44
61292;BME280;47165;42.664;23.368;2024-02-16T01:36:08;95588.75;;;5.70;50.69
61292;BME280;47165;42.664;23.368;2024-02-16T01:38:33;95588.69;;;5.72;50.80
61292;BME280;47165;42.664;23.368;2024-02-16T01:41:00;95587.78;;;5.74;50.66
61292;BME280;47165;42.664;23.368;2024-02-16T01:43:26;95582.72;;;5.70;50.81
61292;BME280;47165;42.664;23.368;2024-02-16T01:45:52;95581.91;;;5.68;51.06
61292;BME280;47165;42.664;23.368;2024-02-16T01:48:18;95581.06;;;5.67;51.04
61292;BME280;47165;42.664;23.368;2024-02-16T01:50:44;95575.84;;;5.69;50.20
61292;BME280;47165;42.664;23.368;2024-02-16T01:53:11;95583.66;;;5.67;49.83
61292;BME280;47165;42.664;23.368;2024-02-16T01:55:37;95573.47;;;5.61;49.78
61292;BME280;47165;42.664;23.368;2024-02-16T01:58:03;95569.38;;;5.54;50.07
61292;BME280;47165;42.664;23.368;2024-02-16T02:00:29;95574.47;;;5.55;49.92
61292;BME280;47165;42.664;23.368;2024-02-16T02:02:55;95572.13;;;5.48;49.83
61292;BME280;47165;42.664;23.368;2024-02-16T02:05:23;95580.75;;;5.48;49.77
61292;BME280;47165;42.664;23.368;2024-02-16T02:07:49;95569.59;;;5.44;49.89
61292;BME280;47165;42.664;23.368;2024-02-16T02:10:15;95569.81;;;5.37;49.64
61292;BME280;47165;42.664;23.368;2024-02-16T02:12:42;95569.16;;;5.29;49.71
61292;BME280;47165;42.664;23.368;2024-02-16T02:15:08;95572.78;;;5.23;49.48
61292;BME280;47165;42.664;23.368;2024-02-16T02:17:35;95569.47;;;5.18;49.67
61292;BME280;47165;42.664;23.368;2024-02-16T02:20:01;95574.81;;;5.12;50.39
61292;BME280;47165;42.664;23.368;2024-02-16T02:22:28;95566.34;;;5.07;50.83
61292;BME280;47165;42.664;23.368;2024-02-16T02:24:54;95575.78;;;5.08;50.64
61292;BME280;47165;42.664;23.368;2024-02-16T02:27:21;95574.97;;;5.06;50.47
61292;BME280;47165;42.664;23.368;2024-02-16T02:29:47;95579.44;;;5.00;50.13
61292;BME280;47165;42.664;23.368;2024-02-16T02:32:13;95576.84;;;5.00;50.03
61292;BME280;47165;42.664;23.368;2024-02-16T02:34:38;95575.22;;;4.96;50.27
61292;BME280;47165;42.664;23.368;2024-02-16T02:37:05;95584.66;;;4.97;50.72
61292;BME280;47165;42.664;23.368;2024-02-16T02:39:31;95578.66;;;4.97;50.57
61292;BME280;47165;42.664;23.368;2024-02-16T02:42:00;95582.13;;;4.96;50.09
61292;BME280;47165;42.664;23.368;2024-02-16T02:44:25;95583.06;;;4.93;50.46
61292;BME280;47165;42.664;23.368;2024-02-16T02:46:51;95582.38;;;4.87;50.45
61292;BME280;47165;42.664;23.368;2024-02-16T02:49:18;95579.09;;;4.80;50.66
61292;BME280;47165;42.664;23.368;2024-02-16T02:51:44;95576.50;;;4.80;50.49
61292;BME280;47165;42.664;23.368;2024-02-16T02:54:10;95571.47;;;4.74;50.40
61292;BME280;47165;42.664;23.368;2024-02-16T02:56:35;95582.03;;;4.64;50.81
61292;BME280;47165;42.664;23.368;2024-02-16T02:59:01;95585.59;;;4.60;50.91
61292;BME280;47165;42.664;23.368;2024-02-16T03:01:27;95581.25;;;4.61;50.79
61292;BME280;47165;42.664;23.368;2024-02-16T03:03:53;95582.16;;;4.60;51.00
61292;BME280;47165;42.664;23.368;2024-02-16T03:06:19;95581.19;;;4.64;50.82
61292;BME280;47165;42.664;23.368;2024-02-16T03:08:45;95571.88;;;4.57;50.96
61292;BME280;47165;42.664;23.368;2024-02-16T03:11:11;95576.22;;;4.55;50.91
61292;BME280;47165;42.664;23.368;2024-02-16T03:13:37;95581.38;;;4.56;51.05
61292;BME280;47165;42.664;23.368;2024-02-16T03:16:03;95571.28;;;4.47;51.29
61292;BME280;47165;42.664;23.368;2024-02-16T03:18:34;95576.38;;;4.49;51.29
61292;BME280;47165;42.664;23.368;2024-02-16T03:21:00;95580.81;;;4.45;51.42
61292;BME280;47165;42.664;23.368;2024-02-16T03:23:26;95576.50;;;4.44;51.12
61292;BME280;47165;42.664;23.368;2024-02-16T03:25:52;95577.47;;;4.40;51.07
61292;BME280;47165;42.664;23.368;2024-02-16T03:28:18;95572.28;;;4.40;51.27
61292;BME280;47165;42.664;23.368;2024-02-16T03:30:44;95581.28;;;4.23;53.01
61292;BME280;47165;42.664;23.368;2024-02-16T03:33:10;95582.88;;;4.29;52.92
61292;BME280;47165;42.664;23.368;2024-02-16T03:35:36;95581.09;;;4.33;53.19
61292;BME280;47165;42.664;23.368;2024-02-16T03:38:03;95585.34;;;4.34;53.15
61292;BME280;47165;42.664;23.368;2024-02-16T03:40:30;95589.59;;;4.36;53.01
61292;BME280;47165;42.664;23.368;2024-02-16T03:42:55;95576.66;;;4.38;52.39
61292;BME280;47165;42.664;23.368;2024-02-16T03:45:21;95586.03;;;4.42;52.91
61292;BME280;47165;42.664;23.368;2024-02-16T03:47:47;95589.50;;;4.41;52.36
61292;BME280;47165;42.664;23.368;2024-02-16T03:50:18;95580.94;;;4.39;51.85
61292;BME280;47165;42.664;23.368;2024-02-16T03:52:44;95590.38;;;4.40;51.85
61292;BME280;47165;42.664;23.368;2024-02-16T03:55:09;95585.38;;;4.32;52.06
61292;BME280;47165;42.664;23.368;2024-02-16T03:57:35;95591.44;;;4.33;51.71
61292;BME280;47165;42.664;23.368;2024-02-16T04:00:02;95583.75;;;4.28;51.68
61292;BME280;47165;42.664;23.368;2024-02-16T04:02:28;95584.53;;;4.32;51.59
61292;BME280;47165;42.664;23.368;2024-02-16T04:04:54;95587.13;;;4.32;51.67
61292;BME280;47165;42.664;23.368;2024-02-16T04:07:20;95581.00;;;4.36;51.52
61292;BME280;47165;42.664;23.368;2024-02-16T04:09:46;95583.75;;;4.28;52.34
61292;BME280;47165;42.664;23.368;2024-02-16T04:12:11;95583.00;;;4.25;52.18
61292;BME280;47165;42.664;23.368;2024-02-16T04:14:37;95582.13;;;4.24;52.12
61292;BME280;47165;42.664;23.368;2024-02-16T04:17:02;95588.31;;;4.18;52.60
61292;BME280;47165;42.664;23.368;2024-02-16T04:19:28;95578.69;;;4.23;52.37
61292;BME280;47165;42.664;23.368;2024-02-16T04:21:54;95585.78;;;4.15;52.05
61292;BME280;47165;42.664;23.368;2024-02-16T04:24:20;95582.25;;;4.18;51.97
61292;BME280;47165;42.664;23.368;2024-02-16T04:26:45;95582.41;;;4.12;52.20
61292;BME280;47165;42.664;23.368;2024-02-16T04:29:11;95573.78;;;4.13;52.04
61292;BME280;47165;42.664;23.368;2024-02-16T04:31:40;95579.00;;;4.10;52.13
61292;BME280;47165;42.664;23.368;2024-02-16T04:34:10;95579.81;;;4.12;51.91
61292;BME280;47165;42.664;23.368;2024-02-16T04:36:36;95585.91;;;4.09;52.23
61292;BME280;47165;42.664;23.368;2024-02-16T04:39:01;95588.59;;;4.05;52.35
61292;BME280;47165;42.664;23.368;2024-02-16T04:41:27;95589.47;;;4.03;52.37
61292;BME280;47165;42.664;23.368;2024-02-16T04:43:52;95580.97;;;4.00;52.13
61292;BME280;47165;42.664;23.368;2024-02-16T04:46:18;95585.22;;;4.01;52.33
61292;BME280;47165;42.664;23.368;2024-02-16T04:48:44;95594.00;;;3.94;53.31
61292;BME280;47165;42.664;23.368;2024-02-16T04:51:10;95601.63;;;4.00;52.94
61292;BME280;47165;42.664;23.368;2024-02-16T04:53:36;95593.91;;;3.98;53.24
61292;BME280;47165;42.664;23.368;2024-02-16T04:56:02;95593.94;;;3.97;53.27
61292;BME280;47165;42.664;23.368;2024-02-16T04:58:28;95599.22;;;3.91;53.82
61292;BME280;47165;42.664;23.368;2024-02-16T05:00:53;95602.59;;;3.94;53.43
61292;BME280;47165;42.664;23.368;2024-02-16T05:03:20;95606.94;;;3.94;53.38
61292;BME280;47165;42.664;23.368;2024-02-16T05:05:45;95606.16;;;3.89;53.77
61292;BME280;47165;42.664;23.368;2024-02-16T05:08:11;95600.97;;;3.90;53.37
61292;BME280;47165;42.664;23.368;2024-02-16T05:10:37;95595.00;;;3.88;53.42
61292;BME280;47165;42.664;23.368;2024-02-16T05:13:03;95611.47;;;3.82;53.50
61292;BME280;47165;42.664;23.368;2024-02-16T05:15:28;95616.56;;;3.86;53.98
61292;BME280;47165;42.664;23.368;2024-02-16T05:17:54;95618.25;;;3.87;53.67
61292;BME280;47165;42.664;23.368;2024-02-16T05:20:20;95622.63;;;3.85;53.54
61292;BME280;47165;42.664;23.368;2024-02-16T05:22:46;95624.38;;;3.82;53.67
61292;BME280;47165;42.664;23.368;2024-02-16T05:25:12;95621.91;;;3.78;53.81
61292;BME280;47165;42.664;23.368;2024-02-16T05:27:38;95633.03;;;3.80;53.78
61292;BME280;47165;42.664;23.368;2024-02-16T05:30:05;95626.13;;;3.82;54.14
61292;BME280;47165;42.664;23.368;2024-02-16T05:32:36;95630.59;;;3.74;54.01
61292;BME280;47165;42.664;23.368;2024-02-16T05:35:03;95632.25;;;3.76;53.95
61292;BME280;47165;42.664;23.368;2024-02-16T05:37:40;95628.94;;;3.71;53.99
61292;BME280;47165;42.664;23.368;2024-02-16T05:40:09;95640.91;;;3.75;54.38
61292;BME280;47165;42.664;23.368;2024-02-16T05:42:47;95636.59;;;3.74;53.97
61292;BME280;47165;42.664;23.368;2024-02-16T05:45:16;95628.81;;;3.77;54.03
61292;BME280;47165;42.664;23.368;2024-02-16T05:47:42;95640.78;;;3.81;54.21
61292;BME280;47165;42.664;23.368;2024-02-16T05:50:09;95639.25;;;3.71;54.66
61292;BME280;47165;42.664;23.368;2024-02-16T05:52:35;95636.63;;;3.73;54.80
61292;BME280;47165;42.664;23.368;2024-02-16T05:55:00;95639.38;;;3.65;54.48
61292;BME280;47165;42.664;23.368;2024-02-16T05:57:26;95639.28;;;3.70;54.98
61292;BME280;47165;42.664;23.368;2024-02-16T05:59:51;95641.00;;;3.69;54.57
61292;BME280;47165;42.664;23.368;2024-02-16T06:02:18;95648.81;;;3.66;54.99
61292;BME280;47165;42.664;23.368;2024-02-16T06:04:43;95650.56;;;3.64;55.43
61292;BME280;47165;42.664;23.368;2024-02-16T06:07:09;95651.50;;;3.60;55.74
61292;BME280;47165;42.664;23.368;2024-02-16T06:09:34;95647.16;;;3.62;55.68
61292;BME280;47165;42.664;23.368;2024-02-16T06:12:04;95638.34;;;3.72;55.33
61292;BME280;47165;42.664;23.368;2024-02-16T06:14:33;95646.19;;;3.69;55.68
61292;BME280;47165;42.664;23.368;2024-02-16T06:16:59;95648.78;;;3.68;55.81
61292;BME280;47165;42.664;23.368;2024-02-16T06:19:26;95651.28;;;3.72;55.73
61292;BME280;47165;42.664;23.368;2024-02-16T06:21:53;95658.06;;;3.76;55.52
61292;BME280;47165;42.664;23.368;2024-02-16T06:24:20;95664.97;;;3.77;56.08
61292;BME280;47165;42.664;23.368;2024-02-16T06:26:46;95661.50;;;3.77;56.13
61292;BME280;47165;42.664;23.368;2024-02-16T06:29:12;95661.34;;;3.85;55.77
61292;BME280;47165;42.664;23.368;2024-02-16T06:31:37;95662.19;;;3.85;56.18
61292;BME280;47165;42.664;23.368;2024-02-16T06:34:03;95654.50;;;3.83;55.93
61292;BME280;47165;42.664;23.368;2024-02-16T06:36:28;95659.47;;;3.93;55.84
61292;BME280;47165;42.664;23.368;2024-02-16T06:38:53;95651.78;;;3.90;56.16
61292;BME280;47165;42.664;23.368;2024-02-16T06:41:19;95656.97;;;3.90;56.21
61292;BME280;47165;42.664;23.368;2024-02-16T06:43:45;95661.31;;;3.88;56.04
61292;BME280;47165;42.664;23.368;2024-02-16T06:46:10;95656.09;;;3.89;56.46
61292;BME280;47165;42.664;23.368;2024-02-16T06:48:36;95652.50;;;3.98;56.13
61292;BME280;47165;42.664;23.368;2024-02-16T06:51:01;95642.88;;;4.05;56.39
61292;BME280;47165;42.664;23.368;2024-02-16T06:53:27;95648.06;;;4.03;56.45
61292;BME280;47165;42.664;23.368;2024-02-16T06:55:52;95654.00;;;4.08;56.45
61292;BME280;47165;42.664;23.368;2024-02-16T06:58:18;95647.81;;;4.15;56.04
61292;BME280;47165;42.664;23.368;2024-02-16T07:00:43;95657.19;;;4.19;56.16
61292;BME280;47165;42.664;23.368;2024-02-16T07:03:10;95651.88;;;4.26;55.92
61292;BME280;47165;42.664;23.368;2024-02-16T07:05:35;95657.00;;;4.29;55.96
61292;BME280;47165;42.664;23.368;2024-02-16T07:08:01;95657.75;;;4.32;55.81
61292;BME280;47165;42.664;23.368;2024-02-16T07:10:27;95655.03;;;4.40;55.85
61292;BME280;47165;42.664;23.368;2024-02-16T07:12:52;95654.06;;;4.44;55.79
61292;BME280;47165;42.664;23.368;2024-02-16T07:15:18;95651.44;;;4.47;55.54
61292;BME280;47165;42.664;23.368;2024-02-16T07:17:43;95658.22;;;4.51;55.89
61292;BME280;47165;42.664;23.368;2024-02-16T07:20:10;95659.81;;;4.57;55.78
61292;BME280;47165;42.664;23.368;2024-02-16T07:22:36;95659.56;;;4.68;55.82
61292;BME280;47165;42.664;23.368;2024-02-16T07:25:01;95648.88;;;4.81;55.39
61292;BME280;47165;42.664;23.368;2024-02-16T07:27:28;95653.19;;;4.82;55.36
61292;BME280;47165;42.664;23.368;2024-02-16T07:29:53;95645.38;;;4.84;55.33
61292;BME280;47165;42.664;23.368;2024-02-16T07:32:19;95645.19;;;4.92;54.93
61292;BME280;47165;42.664;23.368;2024-02-16T07:34:48;95645.94;;;4.97;54.83
61292;BME280;47165;42.664;23.368;2024-02-16T07:37:14;95652.63;;;5.04;54.70
61292;BME280;47165;42.664;23.368;2024-02-16T07:39:41;95649.88;;;5.12;54.69
61292;BME280;47165;42.664;23.368;2024-02-16T07:42:07;95651.59;;;5.13;54.66
61292;BME280;47165;42.664;23.368;2024-02-16T07:44:35;95651.44;;;5.19;54.90
61292;BME280;47165;42.664;23.368;2024-02-16T07:47:01;95646.16;;;5.22;54.57
61292;BME280;47165;42.664;23.368;2024-02-16T07:49:27;95648.59;;;5.28;54.13
61292;BME280;47165;42.664;23.368;2024-02-16T07:51:52;95650.16;;;5.35;54.21
61292;BME280;47165;42.664;23.368;2024-02-16T07:54:18;95656.81;;;5.44;53.97
61292;BME280;47165;42.664;23.368;2024-02-16T07:56:43;95650.63;;;5.50;53.71
61292;BME280;47165;42.664;23.368;2024-02-16T07:59:09;95646.00;;;5.61;53.79
61292;BME280;47165;42.664;23.368;2024-02-16T08:01:34;95654.56;;;5.63;53.26
61292;BME280;47165;42.664;23.368;2024-02-16T08:04:00;95651.84;;;5.68;53.61
61292;BME280;47165;42.664;23.368;2024-02-16T08:06:26;95645.50;;;5.79;53.23
61292;BME280;47165;42.664;23.368;2024-02-16T08:08:53;95654.03;;;5.83;53.10
61292;BME280;47165;42.664;23.368;2024-02-16T08:11:18;95650.50;;;5.85;53.28
61292;BME280;47165;42.664;23.368;2024-02-16T08:13:45;95655.53;;;5.90;53.05
61292;BME280;47165;42.664;23.368;2024-02-16T08:16:11;95654.56;;;5.94;53.27
61292;BME280;47165;42.664;23.368;2024-02-16T08:18:39;95654.38;;;6.02;53.30
61292;BME280;47165;42.664;23.368;2024-02-16T08:21:04;95660.16;;;6.12;53.19
61292;BME280;47165;42.664;23.368;2024-02-16T08:23:30;95652.25;;;6.16;53.20
61292;BME280;47165;42.664;23.368;2024-02-16T08:25:56;95652.63;;;6.34;52.88
61292;BME280;47165;42.664;23.368;2024-02-16T08:28:22;95651.63;;;6.38;52.83
61292;BME280;47165;42.664;23.368;2024-02-16T08:30:48;95655.81;;;6.42;52.86
61292;BME280;47165;42.664;23.368;2024-02-16T08:33:13;95660.88;;;6.47;52.71
61292;BME280;47165;42.664;23.368;2024-02-16T08:35:39;95657.94;;;6.57;52.89
61292;BME280;47165;42.664;23.368;2024-02-16T08:38:04;95660.47;;;6.60;52.78
61292;BME280;47165;42.664;23.368;2024-02-16T08:40:30;95652.56;;;6.63;52.82
61292;BME280;47165;42.664;23.368;2024-02-16T08:42:55;95659.34;;;6.68;52.70
61292;BME280;47165;42.664;23.368;2024-02-16T08:45:21;95653.91;;;6.77;52.85
61292;BME280;47165;42.664;23.368;2024-02-16T08:47:46;95654.22;;;6.93;52.53
61292;BME280;47165;42.664;23.368;2024-02-16T08:50:12;95650.72;;;6.95;52.33
61292;BME280;47165;42.664;23.368;2024-02-16T08:52:38;95656.59;;;7.00;52.24
61292;BME280;47165;42.664;23.368;2024-02-16T08:55:03;95655.19;;;7.17;52.52
61292;BME280;47165;42.664;23.368;2024-02-16T08:57:31;95648.31;;;7.16;52.09
61292;BME280;47165;42.664;23.368;2024-02-16T08:59:57;95658.53;;;7.20;52.08
61292;BME280;47165;42.664;23.368;2024-02-16T09:02:22;95651.09;;;7.36;51.65
61292;BME280;47165;42.664;23.368;2024-02-16T09:04:47;95657.75;;;7.43;51.33
61292;BME280;47165;42.664;23.368;2024-02-16T09:07:13;95656.75;;;7.48;51.17
61292;BME280;47165;42.664;23.368;2024-02-16T09:09:38;95656.53;;;7.54;51.23
61292;BME280;47165;42.664;23.368;2024-02-16T09:12:04;95655.44;;;7.61;51.04
61292;BME280;47165;42.664;23.368;2024-02-16T09:14:30;95655.94;;;7.71;50.86
61292;BME280;47165;42.664;23.368;2024-02-16T09:16:57;95652.28;;;7.76;50.75
61292;BME280;47165;42.664;23.368;2024-02-16T09:19:22;95653.88;;;7.80;50.40
61292;BME280;47165;42.664;23.368;2024-02-16T09:21:48;95658.63;;;7.93;50.33
61292;BME280;47165;42.664;23.368;2024-02-16T09:24:16;95657.31;;;8.06;49.93
61292;BME280;47165;42.664;23.368;2024-02-16T09:26:44;95658.72;;;8.15;49.87
61292;BME280;47165;42.664;23.368;2024-02-16T09:29:14;95655.94;;;8.19;49.28
61292;BME280;47165;42.664;23.368;2024-02-16T09:31:41;95648.47;;;8.34;48.44
61292;BME280;47165;42.664;23.368;2024-02-16T09:34:06;95653.13;;;8.49;47.78
61292;BME280;47165;42.664;23.368;2024-02-16T09:36:32;95651.78;;;8.61;47.74
61292;BME280;47165;42.664;23.368;2024-02-16T09:38:57;95652.53;;;8.64;46.53
61292;BME280;47165;42.664;23.368;2024-02-16T09:41:23;95649.97;;;8.63;46.55
61292;BME280;47165;42.664;23.368;2024-02-16T09:43:48;95654.09;;;8.69;46.84
61292;BME280;47165;42.664;23.368;2024-02-16T09:46:15;95644.13;;;8.80;46.93
61292;BME280;47165;42.664;23.368;2024-02-16T09:48:41;95646.25;;;8.92;46.79
61292;BME280;47165;42.664;23.368;2024-02-16T09:51:09;95640.66;;;9.01;46.46
61292;BME280;47165;42.664;23.368;2024-02-16T09:53:34;95647.38;;;9.07;45.87
61292;BME280;47165;42.664;23.368;2024-02-16T09:55:59;95642.69;;;9.15;46.24
61292;BME280;47165;42.664;23.368;2024-02-16T09:58:26;95640.47;;;9.26;45.95
61292;BME280;47165;42.664;23.368;2024-02-16T10:00:53;95631.25;;;9.40;45.31
61292;BME280;47165;42.664;23.368;2024-02-16T10:03:24;95629.75;;;9.55;44.53
61292;BME280;47165;42.664;23.368;2024-02-16T10:05:51;95627.88;;;9.58;44.74
61292;BME280;47165;42.664;23.368;2024-02-16T10:08:18;95625.25;;;9.58;44.71
61292;BME280;47165;42.664;23.368;2024-02-16T10:10:44;95623.88;;;9.70;44.61
61292;BME280;47165;42.664;23.368;2024-02-16T10:13:09;95618.41;;;9.76;44.31
61292;BME280;47165;42.664;23.368;2024-02-16T10:15:37;95621.38;;;9.87;44.57
61292;BME280;47165;42.664;23.368;2024-02-16T10:18:04;95615.75;;;9.97;44.31
61292;BME280;47165;42.664;23.368;2024-02-16T10:20:30;95609.84;;;10.12;44.56
61292;BME280;47165;42.664;23.368;2024-02-16T10:23:22;95604.34;;;10.37;43.69
61292;BME280;47165;42.664;23.368;2024-02-16T10:25:47;95601.41;;;10.45;43.50
61292;BME280;47165;42.664;23.368;2024-02-16T10:28:13;95597.91;;;10.63;43.03
61292;BME280;47165;42.664;23.368;2024-02-16T10:30:40;95598.88;;;10.80;43.44
61292;BME280;47165;42.664;23.368;2024-02-16T10:33:08;95594.66;;;10.95;43.82
61292;BME280;47165;42.664;23.368;2024-02-16T10:35:37;95588.94;;;11.23;43.58
61292;BME280;47165;42.664;23.368;2024-02-16T10:38:04;95587.69;;;11.47;42.16
61292;BME280;47165;42.664;23.368;2024-02-16T10:40:37;95586.41;;;11.72;41.10
61292;BME280;47165;42.664;23.368;2024-02-16T10:43:07;95586.94;;;11.96;40.85
61292;BME280;47165;42.664;23.368;2024-02-16T10:45:34;95578.78;;;12.18;39.69
61292;BME280;47165;42.664;23.368;2024-02-16T10:48:03;95575.59;;;12.45;39.67
61292;BME280;47165;42.664;23.368;2024-02-16T10:50:37;95577.78;;;12.68;39.21
61292;BME280;47165;42.664;23.368;2024-02-16T10:53:24;95567.13;;;13.02;38.76
61292;BME280;47165;42.664;23.368;2024-02-16T10:55:51;95565.63;;;13.28;38.93
61292;BME280;47165;42.664;23.368;2024-02-16T10:58:18;95566.47;;;13.59;37.07
61292;BME280;47165;42.664;23.368;2024-02-16T11:00:53;95560.13;;;13.92;36.50
61292;BME280;47165;42.664;23.368;2024-02-16T11:03:24;95558.59;;;14.16;35.44
61292;BME280;47165;42.664;23.368;2024-02-16T11:05:50;95566.53;;;14.43;35.57
61292;BME280;47165;42.664;23.368;2024-02-16T11:08:18;95556.84;;;14.73;35.12
61292;BME280;47165;42.664;23.368;2024-02-16T11:10:58;95555.69;;;15.04;34.71
61292;BME280;47165;42.664;23.368;2024-02-16T11:13:27;95541.66;;;15.31;34.31
61292;BME280;47165;42.664;23.368;2024-02-16T11:16:11;95546.22;;;15.67;33.41
61292;BME280;47165;42.664;23.368;2024-02-16T11:18:39;95545.47;;;15.91;32.88
61292;BME280;47165;42.664;23.368;2024-02-16T11:21:05;95544.59;;;16.16;32.90
61292;BME280;47165;42.664;23.368;2024-02-16T11:23:34;95543.28;;;16.47;32.44
61292;BME280;47165;42.664;23.368;2024-02-16T11:26:01;95540.22;;;16.77;31.87
61292;BME280;47165;42.664;23.368;2024-02-16T11:28:31;95534.50;;;17.07;31.83
61292;BME280;47165;42.664;23.368;2024-02-16T11:30:56;95530.66;;;17.36;30.78
61292;BME280;47165;42.664;23.368;2024-02-16T11:33:22;95527.34;;;17.56;30.33
61292;BME280;47165;42.664;23.368;2024-02-16T11:36:04;95519.34;;;17.80;29.86
61292;BME280;47165;42.664;23.368;2024-02-16T11:38:33;95530.19;;;18.00;29.78
61292;BME280;47165;42.664;23.368;2024-02-16T11:41:04;95524.66;;;18.25;29.65
61292;BME280;47165;42.664;23.368;2024-02-16T11:43:30;95521.38;;;18.44;28.84
61292;BME280;47165;42.664;23.368;2024-02-16T11:45:56;95514.25;;;18.67;28.53
61292;BME280;47165;42.664;23.368;2024-02-16T11:48:23;95517.81;;;18.89;28.72
61292;BME280;47165;42.664;23.368;2024-02-16T11:51:02;95510.50;;;19.14;28.16
61292;BME280;47165;42.664;23.368;2024-02-16T11:53:31;95508.28;;;19.30;28.23
61292;BME280;47165;42.664;23.368;2024-02-16T11:55:57;95505.50;;;19.53;27.41
61292;BME280;47165;42.664;23.368;2024-02-16T11:58:24;95510.69;;;19.75;27.05
61292;BME280;47165;42.664;23.368;2024-02-16T12:00:50;95500.56;;;19.90;27.02
61292;BME280;47165;42.664;23.368;2024-02-16T12:03:24;95496.31;;;20.08;27.06
61292;BME280;47165;42.664;23.368;2024-02-16T12:05:57;95504.34;;;20.28;26.62
61292;BME280;47165;42.664;23.368;2024-02-16T12:08:23;95495.72;;;20.36;26.63
61292;BME280;47165;42.664;23.368;2024-02-16T12:10:51;95500.09;;;20.56;26.50
61292;BME280;47165;42.664;23.368;2024-02-16T12:13:18;95500.16;;;20.76;25.87
61292;BME280;47165;42.664;23.368;2024-02-16T12:15:53;95490.94;;;20.89;25.97
61292;BME280;47165;42.664;23.368;2024-02-16T12:18:26;95485.38;;;21.02;25.31
61292;BME280;47165;42.664;23.368;2024-02-16T12:21:06;95488.16;;;21.20;24.75
61292;BME280;47165;42.664;23.368;2024-02-16T12:23:32;95483.97;;;21.27;25.22
61292;BME280;47165;42.664;23.368;2024-02-16T12:25:58;95481.56;;;21.34;24.95
61292;BME280;47165;42.664;23.368;2024-02-16T12:28:28;95481.97;;;21.59;24.55
61292;BME280;47165;42.664;23.368;2024-02-16T12:30:57;95481.13;;;21.68;24.18
61292;BME280;47165;42.664;23.368;2024-02-16T12:33:23;95477.47;;;21.79;24.00
61292;BME280;47165;42.664;23.368;2024-02-16T12:35:49;95479.41;;;21.86;24.36
61292;BME280;47165;42.664;23.368;2024-02-16T12:38:14;95481.59;;;22.01;23.59
61292;BME280;47165;42.664;23.368;2024-02-16T12:40:51;95477.66;;;22.05;23.69
61292;BME280;47165;42.664;23.368;2024-02-16T12:43:17;95465.28;;;22.14;23.37
61292;BME280;47165;42.664;23.368;2024-02-16T12:45:44;95464.72;;;22.20;23.77
61292;BME280;47165;42.664;23.368;2024-02-16T12:48:09;95461.63;;;22.15;23.35
61292;BME280;47165;42.664;23.368;2024-02-16T12:50:35;95469.03;;;22.30;23.63
61292;BME280;47165;42.664;23.368;2024-02-16T12:53:03;95467.47;;;22.38;23.58
61292;BME280;47165;42.664;23.368;2024-02-16T12:55:28;95467.13;;;22.41;23.04